Wahiawa, Hawaii
Current Conditions -  °F | °C
As of 8:58 PM on Sunday 21 Dec 2014 (Local Time) from PHHI Reporting Station
Clear Clear  
Wind Chill: 67°   Ceiling: Unl
Heat Index: 67°   Visibility: 10mi
Dew Point: 64°   Wind: 5mph
Humidity: 90%   Direction: 320°NW
Pressure: 30.02"   Gusts: NA
Location:  21.5°N, 158.02°W
Report Text: PHHI 220658Z AUTO 32004KT 10SM CLR 19/18 A3002 RMK AO2 SLP158 T01940178 $
Loading
Personal Weather Stations






























Interactive Weather Map New forecast layout! Learn more

10-Day Weather Forecast

Advertisements
Track Severe Weather on mobile